Time;durP1;ratioP1;P1;durP2;ratioP2;P2;SDS_P1;SDS_P2;PMS_P1;PMS_P2;Temp;Humidity;BMP_temperature;BMP_pressure;BME280_temperature;BME280_humidity;BME280_pressure;Samples;Min_cycle;Max_cycle;Signal;HPM_P1;HPM_P2
2023/09/21 00:01:35;;;;;;;1.85;1.55;;;20.60;85.00;;;;;;4011911;29;20524;-41
2023/09/21 00:04:16;;;;;;;2.80;1.85;;;20.60;85.00;;;;;;4012079;29;20128;-51
2023/09/21 00:06:57;;;;;;;;;;;20.60;85.00;;;;;;4004522;29;20113;-49
2023/09/21 00:09:38;;;;;;;2.47;1.90;;;20.60;85.00;;;;;;4011748;29;19935;-49
2023/09/21 00:12:21;;;;;;;;;;;20.60;85.30;;;;;;4006881;29;20052;-50
2023/09/21 00:15:20;;;;;;;1.88;1.77;;;20.60;85.30;;;;;;4012116;29;19983;-42
2023/09/21 00:18:05;;;;;;;4.13;2.00;;;20.60;85.50;;;;;;4011930;29;20061;-42
2023/09/21 00:20:51;;;;;;;2.33;1.73;;;20.60;85.30;;;;;;4012688;29;20528;-41
2023/09/21 00:23:32;;;;;;;2.88;1.92;;;20.50;85.00;;;;;;3998187;29;20061;-41
2023/09/21 00:26:14;;;;;;;3.65;1.92;;;20.50;85.00;;;;;;3997617;29;20390;-41
2023/09/21 00:29:03;;;;;;;3.30;1.80;;;20.50;84.80;;;;;;3997618;29;20482;-41
2023/09/21 00:31:45;;;;;;;2.17;1.98;;;20.50;84.80;;;;;;4002101;29;20502;-41
2023/09/21 00:34:26;;;;;;;;;;;20.50;84.80;;;;;;4013591;29;20056;-40
2023/09/21 00:37:08;;;;;;;4.72;1.70;;;20.50;84.80;;;;;;3991764;29;19974;-40
2023/09/21 00:39:52;;;;;;;3.88;1.73;;;20.50;85.20;;;;;;4013075;29;20060;-42
2023/09/21 00:42:33;;;;;;;3.80;2.45;;;20.50;85.70;;;;;;4012156;29;20064;-41
2023/09/21 00:45:15;;;;;;;4.22;2.10;;;20.50;84.70;;;;;;3996676;29;20133;-51
2023/09/21 00:47:59;;;;;;;2.88;2.20;;;20.50;84.80;;;;;;3997288;29;20153;-49
2023/09/21 00:50:42;;;;;;;2.13;2.00;;;20.50;85.00;;;;;;3998072;29;20061;-49
2023/09/21 00:53:27;;;;;;;2.45;2.20;;;20.50;84.80;;;;;;4008759;29;20055;-55
2023/09/21 00:56:12;;;;;;;6.07;2.03;;;20.50;84.60;;;;;;4001773;29;20577;-50
2023/09/21 00:58:57;;;;;;;3.05;2.25;;;20.50;84.60;;;;;;3986060;29;20148;-51
2023/09/21 01:01:40;;;;;;;4.65;1.85;;;20.50;84.50;;;;;;3987941;29;20118;-50
2023/09/21 01:04:21;;;;;;;3.53;2.13;;;20.50;84.40;;;;;;4011313;29;20805;-50
2023/09/21 01:07:11;;;;;;;4.38;1.92;;;20.50;85.30;;;;;;4012837;29;20113;-50
2023/09/21 01:09:53;;;;;;;2.13;1.98;;;20.50;84.50;;;;;;4011904;29;20398;-52
2023/09/21 01:12:37;;;;;;;2.55;2.17;;;20.50;84.40;;;;;;4011444;29;20072;-49
2023/09/21 01:15:20;;;;;;;14.63;2.67;;;20.50;84.50;;;;;;4001259;29;20129;-50
2023/09/21 01:18:07;;;;;;;14.15;2.72;;;20.50;84.60;;;;;;4011376;29;20131;-49
2023/09/21 01:21:04;;;;;;;2.30;2.10;;;20.50;84.60;;;;;;3994621;29;20076;-52
2023/09/21 01:23:50;;;;;;;4.07;2.05;;;20.50;84.60;;;;;;3996930;29;20106;-52
2023/09/21 01:26:36;;;;;;;4.75;2.22;;;20.50;84.60;;;;;;4011585;29;20105;-50
2023/09/21 01:29:17;;;;;;;1.95;1.85;;;20.50;84.50;;;;;;4011137;29;20693;-51
2023/09/21 01:31:58;;;;;;;3.42;2.33;;;20.50;84.50;;;;;;4011326;29;20060;-52
2023/09/21 01:34:41;;;;;;;3.75;2.00;;;20.50;85.30;;;;;;4012305;29;20068;-50
2023/09/21 01:37:23;;;;;;;3.78;1.83;;;20.50;84.30;;;;;;4012396;29;20064;-51
2023/09/21 01:40:13;;;;;;;2.50;1.90;;;20.50;84.20;;;;;;4011586;29;20060;-52
2023/09/21 01:42:54;;;;;;;5.28;2.22;;;20.50;84.20;;;;;;4009136;29;20075;-50
2023/09/21 01:45:37;;;;;;;4.55;1.90;;;20.40;84.20;;;;;;3990953;29;20056;-50
2023/09/21 01:48:20;;;;;;;2.63;1.77;;;20.40;84.20;;;;;;4010372;29;20065;-51
2023/09/21 01:51:02;;;;;;;3.05;2.20;;;20.50;84.30;;;;;;4010245;29;20105;-51
2023/09/21 01:53:45;;;;;;;2.40;1.90;;;20.40;84.20;;;;;;3994970;29;20514;-50
2023/09/21 01:56:28;;;;;;;2.83;1.85;;;20.40;84.20;;;;;;3995588;29;20074;-53
2023/09/21 01:59:10;;;;;;;2.03;1.92;;;20.40;84.20;;;;;;3987075;29;20128;-49
2023/09/21 02:01:51;;;;;;;;;;;20.40;84.20;;;;;;3995167;29;20141;-53
2023/09/21 02:04:32;;;;;;;2.00;1.90;;;20.40;84.30;;;;;;4000122;29;19979;-51
2023/09/21 02:07:16;;;;;;;2.75;1.98;;;20.40;84.70;;;;;;4010717;29;20060;-50
2023/09/21 02:09:58;;;;;;;2.33;1.73;;;20.40;84.50;;;;;;4010646;29;20116;-50
2023/09/21 02:12:40;;;;;;;4.70;1.67;;;20.40;84.60;;;;;;4009736;29;20209;-50
2023/09/21 02:15:22;;;;;;;1.90;1.80;;;20.40;84.50;;;;;;4010147;29;20527;-50
2023/09/21 02:18:04;;;;;;;3.50;1.85;;;20.40;85.30;;;;;;4010249;29;20088;-53
2023/09/21 02:20:46;;;;;;;3.75;2.00;;;20.40;84.50;;;;;;4010354;29;20064;-50
2023/09/21 02:23:27;;;;;;;3.22;2.10;;;20.40;84.50;;;;;;4011401;29;20119;-51
2023/09/21 02:26:09;;;;;;;4.80;2.00;;;20.40;84.40;;;;;;4011395;29;20516;-51
2023/09/21 02:28:53;;;;;;;2.33;2.05;;;20.40;84.50;;;;;;4010842;29;20057;-51
2023/09/21 02:31:37;;;;;;;1.77;1.67;;;20.40;84.60;;;;;;4010895;29;20080;-51
2023/09/21 02:34:21;;;;;;;2.17;1.98;;;20.40;84.50;;;;;;4009763;29;20053;-49
2023/09/21 02:37:02;;;;;;;1.95;1.80;;;20.40;84.60;;;;;;3999610;29;20472;-49
2023/09/21 02:39:48;;;;;;;3.72;1.70;;;20.40;84.60;;;;;;4001317;29;20640;-41
2023/09/21 02:42:32;;;;;;;3.47;2.00;;;20.40;84.50;;;;;;4001824;29;20479;-42
2023/09/21 02:45:15;;;;;;;2.28;1.70;;;20.40;84.50;;;;;;4007448;29;20390;-43
2023/09/21 02:48:00;;;;;;;2.92;1.65;;;20.40;84.40;;;;;;3998236;29;20072;-42
2023/09/21 02:50:43;;;;;;;3.92;2.25;;;20.50;84.50;;;;;;4008596;29;20073;-41
2023/09/21 02:53:24;;;;;;;4.40;1.95;;;20.40;84.50;;;;;;4008425;29;20056;-41
2023/09/21 02:56:09;;;;;;;2.05;1.80;;;20.40;84.40;;;;;;3972495;29;20065;-41
2023/09/21 02:58:52;;;;;;;3.05;1.70;;;20.40;84.50;;;;;;4010397;29;20511;-42
2023/09/21 03:01:37;;;;;;;4.72;2.20;;;20.40;84.50;;;;;;4007065;29;20622;-41
2023/09/21 03:04:19;;;;;;;3.22;2.00;;;20.40;84.40;;;;;;4002350;29;20073;-55
2023/09/21 03:06:59;;;;;;;2.05;1.85;;;20.40;84.50;;;;;;4000333;29;20476;-55
2023/09/21 03:09:40;;;;;;;2.42;1.75;;;20.40;84.60;;;;;;4000699;29;20197;-56
2023/09/21 03:12:22;;;;;;;2.00;1.60;;;20.40;84.60;;;;;;4000807;29;20440;-56
2023/09/21 03:15:06;;;;;;;2.72;1.85;;;20.40;84.60;;;;;;4011403;29;20056;-55
2023/09/21 03:17:52;;;;;;;3.60;2.13;;;20.40;84.60;;;;;;4000517;29;20505;-55
2023/09/21 03:20:34;;;;;;;2.60;1.88;;;20.40;84.50;;;;;;4000612;29;20069;-56
2023/09/21 03:23:15;;;;;;;;;;;20.40;84.60;;;;;;4011267;29;20080;-55
2023/09/21 03:25:57;;;;;;;2.13;1.92;;;20.40;84.60;;;;;;4011026;29;20489;-53
2023/09/21 03:28:38;;;;;;;2.30;2.00;;;20.40;84.90;;;;;;4011230;29;20068;-54
2023/09/21 03:31:19;;;;;;;3.70;2.10;;;20.40;84.60;;;;;;4011181;29;20068;-51
2023/09/21 03:34:02;;;;;;;5.82;1.95;;;20.40;84.70;;;;;;4010933;29;20232;-53
2023/09/21 03:36:46;;;;;;;3.08;1.90;;;20.40;84.60;;;;;;4011771;29;20504;-55
2023/09/21 03:39:27;;;;;;;2.13;1.75;;;20.40;84.50;;;;;;4000076;29;20060;-55
2023/09/21 03:42:09;;;;;;;4.88;2.03;;;20.40;84.70;;;;;;4009844;29;20524;-54
2023/09/21 03:44:50;;;;;;;2.83;2.13;;;20.40;84.80;;;;;;4010806;29;20053;-53
2023/09/21 03:47:31;;;;;;;2.25;2.10;;;20.40;84.70;;;;;;3990420;29;20076;-55
2023/09/21 03:50:17;;;;;;;1.85;1.60;;;20.40;84.80;;;;;;4010532;29;20056;-54
2023/09/21 03:52:59;;;;;;;2.20;2.00;;;20.40;84.70;;;;;;4005556;29;20097;-54
2023/09/21 03:55:41;;;;;;;2.25;2.05;;;20.40;84.70;;;;;;4011136;29;20060;-54
2023/09/21 03:58:22;;;;;;;2.63;1.92;;;20.40;84.70;;;;;;4011742;29;20056;-54
2023/09/21 04:01:09;;;;;;;2.30;2.10;;;20.40;84.60;;;;;;3999906;29;20068;-53
2023/09/21 04:03:54;;;;;;;2.30;2.10;;;20.40;84.70;;;;;;4005773;29;20084;-55
2023/09/21 04:06:37;;;;;;;1.80;1.70;;;20.40;84.70;;;;;;4012243;29;20064;-53
2023/09/21 04:09:18;;;;;;;3.85;2.42;;;20.40;84.70;;;;;;4014221;29;20113;-59
2023/09/21 04:12:00;;;;;;;3.28;2.20;;;20.40;84.70;;;;;;4013680;29;20512;-59
2023/09/21 04:14:45;;;;;;;5.18;2.15;;;20.30;84.70;;;;;;4014041;29;20056;-60
2023/09/21 04:17:26;;;;;;;2.40;2.20;;;20.40;84.60;;;;;;4013681;29;20516;-59
2023/09/21 04:20:14;;;;;;;2.22;2.03;;;20.40;84.80;;;;;;4001893;29;20052;-59
2023/09/21 04:22:56;;;;;;;2.10;1.92;;;20.40;84.70;;;;;;4012683;29;20085;-59
2023/09/21 04:25:38;;;;;;;2.30;1.88;;;20.40;84.70;;;;;;4002654;29;20057;-59
2023/09/21 04:28:20;;;;;;;5.28;1.95;;;20.40;84.70;;;;;;4002265;29;20548;-59
2023/09/21 04:31:01;;;;;;;1.92;1.80;;;20.30;84.60;;;;;;4012428;29;20163;-59
2023/09/21 04:33:42;;;;;;;1.90;1.80;;;20.40;84.80;;;;;;4002284;29;20516;-51
2023/09/21 04:36:24;;;;;;;2.10;2.00;;;20.30;84.70;;;;;;4002320;29;20508;-51
2023/09/21 04:39:08;;;;;;;3.72;2.03;;;20.30;85.50;;;;;;4013739;29;20158;-51
2023/09/21 04:41:49;;;;;;;2.30;2.10;;;20.30;84.60;;;;;;4008074;29;20047;-51
2023/09/21 04:44:30;;;;;;;2.55;1.80;;;20.30;84.60;;;;;;3998003;29;20057;-50
2023/09/21 04:47:12;;;;;;;2.22;2.13;;;20.30;84.60;;;;;;3998564;29;20410;-50
2023/09/21 04:49:54;;;;;;;2.45;1.90;;;20.30;84.80;;;;;;4010163;29;20064;-53
2023/09/21 04:52:36;;;;;;;2.17;1.90;;;20.30;84.80;;;;;;4013004;29;20504;-52
2023/09/21 04:55:19;;;;;;;2.55;2.00;;;20.30;84.70;;;;;;4002363;29;20072;-49
2023/09/21 04:58:01;;;;;;;1.92;1.73;;;20.30;84.70;;;;;;4002483;29;20194;-50
2023/09/21 05:00:43;;;;;;;2.22;1.95;;;20.30;84.80;;;;;;4011955;29;20070;-51
2023/09/21 05:03:24;;;;;;;2.70;1.58;;;20.30;84.90;;;;;;4001615;29;20518;-53
2023/09/21 05:06:06;;;;;;;;;;;20.30;84.90;;;;;;4002503;29;20076;-50
2023/09/21 05:08:47;;;;;;;;;;;20.30;85.00;;;;;;4013227;29;20072;-51
2023/09/21 05:11:33;;;;;;;2.58;1.60;;;20.30;85.40;;;;;;4012788;29;19935;-49
2023/09/21 05:14:15;;;;;;;2.28;1.95;;;20.30;85.50;;;;;;4001514;29;20186;-49
2023/09/21 05:16:57;;;;;;;1.98;1.88;;;20.30;85.40;;;;;;4011730;29;20065;-49
2023/09/21 05:19:38;;;;;;;1.98;1.85;;;20.30;85.30;;;;;;3997916;29;20093;-50
2023/09/21 05:22:21;;;;;;;2.20;2.10;;;20.30;85.20;;;;;;4009632;29;20057;-50
2023/09/21 05:25:02;;;;;;;;;;;20.30;85.10;;;;;;4001840;29;20120;-50
2023/09/21 05:27:46;;;;;;;2.60;1.92;;;20.30;85.00;;;;;;4014148;29;19931;-50
2023/09/21 05:30:28;;;;;;;2.50;2.33;;;20.30;85.50;;;;;;4013668;29;20064;-52
2023/09/21 05:33:09;;;;;;;2.72;2.10;;;20.30;85.40;;;;;;4013435;29;20056;-50
2023/09/21 05:35:55;;;;;;;3.70;1.95;;;20.30;85.30;;;;;;4014240;29;20061;-54
2023/09/21 05:38:37;;;;;;;2.25;2.05;;;20.30;85.40;;;;;;4012599;29;20047;-51
2023/09/21 05:41:18;;;;;;;2.13;1.83;;;20.30;85.60;;;;;;4012634;29;20068;-52
2023/09/21 05:44:00;;;;;;;1.95;1.67;;;20.30;85.50;;;;;;4014014;29;20508;-54
2023/09/21 05:46:41;;;;;;;2.25;1.38;;;20.30;85.50;;;;;;4013104;29;20081;-51
2023/09/21 05:49:23;;;;;;;;;;;20.30;85.40;;;;;;3998905;29;20056;-53
2023/09/21 05:52:08;;;;;;;;;;;20.30;85.40;;;;;;4008248;29;20072;-54
2023/09/21 05:54:49;;;;;;;4.20;2.00;;;20.30;85.90;;;;;;4013053;29;20068;-53
2023/09/21 05:57:30;;;;;;;2.35;1.77;;;20.30;86.00;;;;;;3998422;29;20061;-59
2023/09/21 06:00:14;;;;;;;6.40;2.42;;;20.30;85.90;;;;;;3998238;29;20065;-61
2023/09/21 06:02:55;;;;;;;2.17;1.73;;;20.30;85.90;;;;;;4006953;29;20133;-60
2023/09/21 06:05:36;;;;;;;2.38;1.80;;;20.30;85.90;;;;;;4013295;29;20513;-60
2023/09/21 06:08:17;;;;;;;2.78;2.00;;;20.30;85.90;;;;;;4012942;29;20052;-61
2023/09/21 06:10:58;;;;;;;;;;;20.30;85.90;;;;;;4014098;29;20137;-59
2023/09/21 06:13:39;;;;;;;2.30;1.70;;;20.30;86.00;;;;;;4012220;29;19935;-60
2023/09/21 06:16:22;;;;;;;2.00;1.80;;;20.30;86.30;;;;;;4011834;29;20049;-52
2023/09/21 06:19:03;;;;;;;2.50;1.70;;;20.30;86.20;;;;;;4013232;29;20093;-49
2023/09/21 06:21:45;;;;;;;3.10;1.77;;;20.30;86.00;;;;;;4009929;29;20075;-58
2023/09/21 06:24:26;;;;;;;2.45;2.10;;;20.30;86.00;;;;;;4012777;29;20576;-59
2023/09/21 06:27:07;;;;;;;5.63;1.80;;;20.30;85.90;;;;;;4012603;29;20068;-58
2023/09/21 06:29:49;;;;;;;3.47;2.17;;;20.30;85.80;;;;;;4011787;29;20052;-59
2023/09/21 06:32:32;;;;;;;3.08;1.90;;;20.30;85.70;;;;;;4011979;29;20049;-52
2023/09/21 06:35:14;;;;;;;3.15;2.00;;;20.30;84.70;;;;;;4011905;29;20065;-50
2023/09/21 06:37:55;;;;;;;2.13;1.50;;;20.30;85.50;;;;;;4001882;29;20060;-51
2023/09/21 06:40:36;;;;;;;1.90;1.70;;;20.30;85.50;;;;;;4010888;29;20110;-51
2023/09/21 06:43:18;;;;;;;4.22;2.15;;;20.30;85.50;;;;;;4010789;29;20065;-51
2023/09/21 06:45:59;;;;;;;1.95;1.65;;;20.30;85.40;;;;;;4011897;29;20528;-50
2023/09/21 06:48:41;;;;;;;3.30;1.83;;;20.30;86.40;;;;;;4011563;29;20112;-51
2023/09/21 06:51:23;;;;;;;4.22;1.80;;;20.30;85.50;;;;;;3996993;29;20072;-59
2023/09/21 06:54:04;;;;;;;3.75;1.80;;;20.30;85.50;;;;;;4009885;29;20189;-59
2023/09/21 06:56:45;;;;;;;2.35;2.10;;;20.30;85.50;;;;;;4012095;29;20064;-59
2023/09/21 06:59:26;;;;;;;2.63;2.25;;;20.30;85.40;;;;;;4012276;29;20105;-59
2023/09/21 07:02:07;;;;;;;2.25;1.95;;;20.30;85.50;;;;;;4012597;29;20096;-59
2023/09/21 07:04:50;;;;;;;3.47;1.60;;;20.30;85.50;;;;;;4010910;29;20409;-59
2023/09/21 07:07:31;;;;;;;3.35;1.80;;;20.30;86.30;;;;;;4023901;29;20109;-59
2023/09/21 07:10:14;;;;;;;3.65;1.73;;;20.30;85.50;;;;;;4025377;29;20060;-59
2023/09/21 07:12:55;;;;;;;2.13;1.92;;;20.30;85.60;;;;;;3996318;29;20133;-50
2023/09/21 07:15:38;;;;;;;3.15;1.70;;;20.30;85.60;;;;;;4011813;29;20065;-50
2023/09/21 07:18:20;;;;;;;2.25;1.75;;;20.30;85.60;;;;;;4010952;29;20523;-51
2023/09/21 07:21:03;;;;;;;1.70;1.60;;;20.30;85.60;;;;;;4011310;29;20056;-54
2023/09/21 07:23:43;;;;;;;2.22;2.03;;;20.30;85.70;;;;;;4000347;29;20413;-51
2023/09/21 07:26:24;;;;;;;6.07;1.80;;;20.30;85.70;;;;;;4012089;29;20056;-52
2023/09/21 07:29:06;;;;;;;3.85;2.28;;;20.30;85.70;;;;;;4012605;29;20059;-53
2023/09/21 07:31:46;;;;;;;2.72;2.03;;;20.40;85.80;;;;;;4011495;29;20060;-52
2023/09/21 07:34:29;;;;;;;4.22;2.05;;;20.40;85.90;;;;;;4011953;29;20065;-50
2023/09/21 07:37:12;;;;;;;1.95;1.75;;;20.40;85.90;;;;;;4012294;29;20461;-53
2023/09/21 07:39:53;;;;;;;6.07;1.95;;;20.40;86.00;;;;;;4011810;29;20140;-59
2023/09/21 07:42:34;;;;;;;2.15;1.95;;;20.40;86.40;;;;;;4013825;29;20056;-59
2023/09/21 07:45:16;;;;;;;2.45;2.25;;;20.40;86.80;;;;;;3999918;29;20133;-50
2023/09/21 07:47:57;;;;;;;2.17;1.95;;;20.40;86.90;;;;;;4000142;29;20151;-51
2023/09/21 07:50:37;;;;;;;2.00;1.90;;;20.40;86.80;;;;;;4014865;29;20052;-48
2023/09/21 07:53:20;;;;;;;2.28;2.17;;;20.40;86.80;;;;;;4013676;29;20086;-52
2023/09/21 07:56:05;;;;;;;2.08;1.95;;;20.40;86.90;;;;;;4014497;29;20060;-49
2023/09/21 07:58:46;;;;;;;1.95;1.85;;;20.50;87.10;;;;;;3997003;29;20105;-53
2023/09/21 08:01:28;;;;;;;2.90;1.73;;;20.50;87.10;;;;;;4003489;29;20372;-48
2023/09/21 08:04:09;;;;;;;1.67;1.58;;;20.50;88.10;;;;;;4011860;29;20056;-47
2023/09/21 08:06:49;;;;;;;2.95;1.90;;;20.40;87.20;;;;;;4013135;29;20072;-50
2023/09/21 08:09:32;;;;;;;2.58;1.92;;;20.40;87.30;;;;;;4013612;29;20165;-50
2023/09/21 08:12:13;;;;;;;2.03;1.35;;;20.40;87.30;;;;;;4014508;29;20515;-49
2023/09/21 08:14:54;;;;;;;2.45;1.77;;;20.40;87.30;;;;;;4003232;29;20101;-52
2023/09/21 08:17:36;;;;;;;2.22;1.83;;;20.40;87.30;;;;;;4014736;29;20064;-49
2023/09/21 08:20:17;;;;;;;2.83;2.20;;;20.40;87.40;;;;;;4014608;29;20127;-50
2023/09/21 08:22:58;;;;;;;2.58;2.33;;;20.50;87.60;;;;;;4012514;29;20535;-50
2023/09/21 08:25:40;;;;;;;5.88;2.15;;;20.50;87.80;;;;;;4013352;29;20156;-52
2023/09/21 08:28:25;;;;;;;2.50;2.30;;;20.50;88.00;;;;;;4013877;29;20109;-51
2023/09/21 08:31:09;;;;;;;1.95;1.80;;;20.50;87.90;;;;;;3998354;29;20064;-49
2023/09/21 08:33:50;;;;;;;2.65;1.70;;;20.50;88.00;;;;;;3998678;29;20885;-52
2023/09/21 08:36:30;;;;;;;4.20;1.83;;;20.50;88.10;;;;;;3998946;29;20154;-50
2023/09/21 08:39:11;;;;;;;2.63;2.15;;;20.50;88.20;;;;;;4012737;29;20061;-50
2023/09/21 08:41:54;;;;;;;2.97;2.35;;;20.50;88.40;;;;;;4013277;29;20101;-59
2023/09/21 08:44:35;;;;;;;4.60;2.33;;;20.50;88.20;;;;;;4013363;29;20061;-59
2023/09/21 08:47:16;;;;;;;3.97;2.03;;;20.50;88.30;;;;;;4013524;29;20509;-59
2023/09/21 08:50:14;;;;;;;2.50;2.30;;;20.50;88.30;;;;;;4012328;29;20055;-59
2023/09/21 08:52:57;;;;;;;3.47;2.05;;;20.40;88.30;;;;;;4012836;29;20056;-60
2023/09/21 08:55:39;;;;;;;4.35;2.00;;;20.40;88.40;;;;;;3997080;29;20057;-59
2023/09/21 08:58:24;;;;;;;2.38;2.03;;;20.50;88.40;;;;;;3998019;29;20085;-59
2023/09/21 09:01:06;;;;;;;2.75;2.10;;;20.50;88.60;;;;;;4012607;29;20141;-58
2023/09/21 09:03:47;;;;;;;5.25;2.00;;;20.50;88.60;;;;;;4013067;29;20516;-60
2023/09/21 09:06:29;;;;;;;;;;;20.40;88.60;;;;;;4010777;29;20051;-59
2023/09/21 09:09:13;;;;;;;2.42;2.10;;;20.50;88.70;;;;;;4013588;29;19930;-49
2023/09/21 09:11:54;;;;;;;4.53;1.65;;;20.50;88.60;;;;;;4013686;29;20076;-53
2023/09/21 09:14:42;;;;;;;2.05;1.95;;;20.50;88.80;;;;;;4013107;29;20064;-59
2023/09/21 09:17:29;;;;;;;2.47;1.95;;;20.50;89.20;;;;;;4012946;29;20194;-59
2023/09/21 09:20:13;;;;;;;4.35;2.17;;;20.50;89.20;;;;;;4010954;29;20097;-59
2023/09/21 09:22:54;;;;;;;2.28;2.15;;;20.50;89.50;;;;;;4012563;29;20582;-59
2023/09/21 09:25:35;;;;;;;;;;;20.40;89.50;;;;;;4009364;29;20045;-59
2023/09/21 09:28:17;;;;;;;6.05;2.15;;;20.50;89.80;;;;;;4012755;29;20020;-59
2023/09/21 09:30:59;;;;;;;5.72;2.50;;;20.40;89.50;;;;;;4012868;29;20554;-49
2023/09/21 09:33:40;;;;;;;2.30;2.20;;;20.40;89.70;;;;;;4019942;29;20060;-51
2023/09/21 09:36:21;;;;;;;3.22;3.03;;;20.40;90.30;;;;;;4019999;29;20569;-50
2023/09/21 09:39:08;;;;;;;2.40;2.20;;;20.40;90.00;;;;;;4015902;29;20281;-49
2023/09/21 09:41:51;;;;;;;3.25;2.58;;;20.40;90.00;;;;;;4012958;29;20166;-50
2023/09/21 09:44:37;;;;;;;5.50;2.85;;;20.50;90.10;;;;;;4013140;29;20111;-48
2023/09/21 09:47:22;;;;;;;5.28;2.40;;;20.50;90.20;;;;;;3997821;29;20061;-49
2023/09/21 09:50:09;;;;;;;3.50;2.65;;;20.40;90.20;;;;;;4006070;29;20060;-52
2023/09/21 09:52:52;;;;;;;4.55;3.42;;;20.40;90.20;;;;;;4000362;29;20182;-49
2023/09/21 09:55:35;;;;;;;4.60;2.97;;;20.40;90.30;;;;;;4009809;29;20504;-56
2023/09/21 09:58:16;;;;;;;3.97;2.80;;;20.50;90.50;;;;;;4011998;29;20125;-54
2023/09/21 10:01:00;;;;;;;4.88;3.10;;;20.50;90.60;;;;;;4012379;29;20186;-60
2023/09/21 10:13:00;;;;;;;2.80;2.60;;;20.70;90.50;;;;;;4533852;23;20094;-44
2023/09/21 10:15:43;;;;;;;1.42;1.20;;;20.70;90.30;;;;;;4075147;29;20090;-60
2023/09/21 10:18:35;;;;;;;1.70;0.85;;;20.80;90.60;;;;;;4062789;29;20074;-58
2023/09/21 10:21:26;;;;;;;0.65;0.65;;;20.80;90.00;;;;;;4074424;29;20066;-51
2023/09/21 10:24:18;;;;;;;1.40;0.73;;;20.80;89.60;;;;;;4073941;29;20119;-54
2023/09/21 10:27:01;;;;;;;0.63;0.60;;;20.80;89.10;;;;;;4072599;29;20063;-55
2023/09/21 10:29:43;;;;;;;0.70;0.70;;;20.80;88.90;;;;;;4074573;29;20098;-55
2023/09/21 10:32:24;;;;;;;0.80;0.80;;;20.80;88.80;;;;;;4074750;29;20062;-50
2023/09/21 10:35:09;;;;;;;1.98;0.98;;;20.80;88.80;;;;;;4074215;29;20596;-56
2023/09/21 10:38:11;;;;;;;0.70;0.63;;;20.80;88.80;;;;;;4073183;29;20058;-50
2023/09/21 10:40:52;;;;;;;0.82;0.75;;;20.70;88.80;;;;;;4060550;29;20043;-53
2023/09/21 10:43:46;;;;;;;1.25;0.60;;;20.70;88.80;;;;;;4073900;29;20183;-51
2023/09/21 10:46:32;;;;;;;0.88;0.80;;;20.70;88.70;;;;;;4060825;29;20058;-56
2023/09/21 10:49:15;;;;;;;0.60;0.52;;;20.70;88.70;;;;;;4074004;29;20066;-55
2023/09/21 10:51:56;;;;;;;0.85;0.50;;;20.60;88.60;;;;;;4074369;29;20155;-56
2023/09/21 10:54:37;;;;;;;0.60;0.60;;;20.60;88.50;;;;;;4073710;29;20099;-54
2023/09/21 10:57:24;;;;;;;1.25;0.65;;;20.60;88.60;;;;;;4069081;29;20059;-56
2023/09/21 11:00:08;;;;;;;0.70;0.70;;;20.60;88.60;;;;;;4073918;29;20091;-56
2023/09/21 11:02:54;;;;;;;0.70;0.70;;;20.60;88.60;;;;;;4059087;29;20434;-57
2023/09/21 11:05:35;;;;;;;1.23;0.60;;;20.60;88.60;;;;;;4058031;29;20099;-57
2023/09/21 11:08:17;;;;;;;1.33;1.13;;;20.60;88.50;;;;;;4057823;29;20482;-57
2023/09/21 11:10:58;;;;;;;2.08;0.88;;;20.50;88.40;;;;;;4061866;29;20063;-55
2023/09/21 11:13:39;;;;;;;2.35;0.90;;;20.50;88.20;;;;;;4057275;29;20840;-55
2023/09/21 11:16:21;;;;;;;0.80;0.70;;;20.50;88.10;;;;;;4058008;29;20122;-57
2023/09/21 11:19:06;;;;;;;3.13;0.70;;;20.50;88.30;;;;;;4061751;29;20057;-54
2023/09/21 11:21:49;;;;;;;0.70;0.70;;;20.50;88.20;;;;;;4061187;29;20522;-53
2023/09/21 11:24:33;;;;;;;3.72;1.15;;;20.50;88.40;;;;;;4073683;29;20462;-56
2023/09/21 11:27:15;;;;;;;1.58;0.80;;;20.50;88.70;;;;;;4055380;29;20055;-58
2023/09/21 11:29:57;;;;;;;1.00;1.00;;;20.50;88.70;;;;;;4073555;29;20058;-58
2023/09/21 11:32:43;;;;;;;1.42;1.27;;;20.50;89.00;;;;;;4068178;29;20051;-58
2023/09/21 11:35:28;;;;;;;1.10;1.10;;;20.50;89.10;;;;;;4067915;29;20191;-58
2023/09/21 11:38:10;;;;;;;2.13;0.85;;;20.50;89.20;;;;;;4059533;29;20063;-58
2023/09/21 11:40:51;;;;;;;1.90;0.80;;;20.60;89.10;;;;;;4037372;29;20079;-59
2023/09/21 11:43:32;;;;;;;;;;;20.60;89.10;;;;;;4073671;29;20118;-59
2023/09/21 11:46:13;;;;;;;0.80;0.80;;;20.70;89.20;;;;;;4073627;29;19942;-60
2023/09/21 11:48:54;;;;;;;1.08;0.98;;;20.70;89.50;;;;;;4073721;29;20051;-60
2023/09/21 11:51:37;;;;;;;;;;;20.70;89.50;;;;;;4059063;29;20063;-60
2023/09/21 11:54:18;;;;;;;0.70;0.70;;;20.70;89.50;;;;;;4058238;29;19972;-59
2023/09/21 11:57:04;;;;;;;2.92;1.25;;;20.80;89.60;;;;;;4058136;29;20103;-55
2023/09/21 11:59:45;;;;;;;0.90;0.90;;;20.80;89.20;;;;;;4060874;29;20051;-59
2023/09/21 12:02:26;;;;;;;1.20;0.95;;;20.90;89.20;;;;;;4073789;29;20054;-59
2023/09/21 12:05:11;;;;;;;1.08;1.02;;;20.90;89.30;;;;;;4073591;29;20454;-58
2023/09/21 12:07:56;;;;;;;1.73;0.90;;;20.90;89.30;;;;;;4050104;29;20558;-60
2023/09/21 12:10:37;;;;;;;1.75;0.98;;;20.90;89.20;;;;;;4073231;29;20062;-54
2023/09/21 12:13:19;;;;;;;1.00;1.00;;;21.00;89.20;;;;;;4073337;29;20055;-56
2023/09/21 12:16:00;;;;;;;1.27;1.27;;;21.00;89.20;;;;;;4073604;29;20090;-58
2023/09/21 12:18:41;;;;;;;0.80;0.80;;;21.10;90.00;;;;;;4072127;29;20059;-58
2023/09/21 12:21:22;;;;;;;0.85;0.80;;;21.10;89.30;;;;;;4061059;29;20054;-58
2023/09/21 12:24:06;;;;;;;1.08;1.08;;;21.10;89.30;;;;;;4057605;29;20063;-58
2023/09/21 12:26:47;;;;;;;1.15;1.08;;;21.10;88.90;;;;;;4064142;29;20531;-56
2023/09/21 12:29:28;;;;;;;1.00;1.00;;;21.10;89.50;;;;;;4076170;29;20505;-50
2023/09/21 12:32:10;;;;;;;0.70;0.70;;;21.20;89.80;;;;;;4064490;29;20070;-60
2023/09/21 12:34:54;;;;;;;1.15;1.08;;;21.20;89.70;;;;;;4059177;29;20059;-58
2023/09/21 12:37:34;;;;;;;1.20;0.90;;;21.20;89.60;;;;;;4060886;29;20510;-56
2023/09/21 12:40:17;;;;;;;2.20;1.40;;;21.20;89.80;;;;;;4060719;29;20059;-57
2023/09/21 12:42:58;;;;;;;1.35;1.17;;;21.20;89.90;;;;;;4060163;29;20075;-59
2023/09/21 12:45:39;;;;;;;0.93;0.90;;;21.20;89.60;;;;;;4060727;29;20139;-58
2023/09/21 12:48:20;;;;;;;;;;;21.20;89.50;;;;;;4053620;29;20063;-58
2023/09/21 12:51:01;;;;;;;1.70;1.60;;;21.20;89.50;;;;;;4061972;29;20377;-58
2023/09/21 12:53:42;;;;;;;1.60;1.02;;;21.20;89.60;;;;;;4059592;29;20307;-60
2023/09/21 12:56:24;;;;;;;1.30;1.25;;;21.20;89.60;;;;;;4070192;29;20053;-59
2023/09/21 12:59:05;;;;;;;2.05;1.10;;;21.30;89.60;;;;;;4088198;29;20116;-59
2023/09/21 13:01:46;;;;;;;1.42;1.00;;;21.30;89.40;;;;;;4075399;29;20454;-59
2023/09/21 13:04:27;;;;;;;3.67;1.25;;;21.30;89.10;;;;;;4075411;29;20066;-59
2023/09/21 13:07:08;;;;;;;2.03;0.95;;;21.30;89.60;;;;;;4075868;29;20051;-62
2023/09/21 13:09:49;;;;;;;2.15;0.93;;;21.30;88.70;;;;;;4075721;29;20113;-64
2023/09/21 13:12:34;;;;;;;1.38;1.20;;;21.40;88.70;;;;;;4074244;29;20126;-63
2023/09/21 13:15:16;;;;;;;1.50;0.85;;;21.40;88.60;;;;;;4056475;29;20063;-55
2023/09/21 13:17:56;;;;;;;0.80;0.80;;;21.40;88.50;;;;;;4059888;29;20063;-58
2023/09/21 13:20:37;;;;;;;0.63;0.60;;;21.40;88.60;;;;;;4066540;29;20058;-59
2023/09/21 13:23:19;;;;;;;0.70;0.70;;;21.40;88.40;;;;;;4048394;29;20102;-59
2023/09/21 13:26:00;;;;;;;1.30;1.05;;;21.40;88.00;;;;;;4074123;29;20074;-58
2023/09/21 13:28:42;;;;;;;0.73;0.57;;;21.30;87.80;;;;;;4075222;29;20066;-58
2023/09/21 13:31:25;;;;;;;0.52;0.52;;;21.30;87.70;;;;;;4074637;29;20109;-58
2023/09/21 13:34:06;;;;;;;0.60;0.60;;;21.30;88.70;;;;;;4075441;29;20130;-61
2023/09/21 13:36:49;;;;;;;1.13;0.77;;;21.30;87.80;;;;;;4074464;29;20106;-61
2023/09/21 13:39:31;;;;;;;0.70;0.70;;;21.20;87.90;;;;;;4074588;29;20055;-60
2023/09/21 13:42:12;;;;;;;0.80;0.80;;;21.20;88.00;;;;;;4072674;29;20179;-59
2023/09/21 13:44:54;;;;;;;;;;;21.10;88.10;;;;;;4070830;29;20062;-58
2023/09/21 13:47:36;;;;;;;1.35;0.77;;;21.10;87.90;;;;;;4090372;29;19953;-57
2023/09/21 13:50:18;;;;;;;0.70;0.70;;;21.00;88.40;;;;;;4074296;29;20130;-58
2023/09/21 13:53:00;;;;;;;0.60;0.60;;;21.00;88.30;;;;;;4072686;29;20506;-60
2023/09/21 13:55:40;;;;;;;1.40;0.52;;;21.00;88.30;;;;;;4074684;29;20423;-60
2023/09/21 13:58:21;;;;;;;1.00;0.70;;;20.90;88.30;;;;;;4074698;29;20098;-61
2023/09/21 14:01:04;;;;;;;1.20;0.90;;;20.90;88.50;;;;;;4066844;29;20059;-60
2023/09/21 14:03:45;;;;;;;1.00;1.00;;;20.90;88.70;;;;;;4059259;29;20518;-60
2023/09/21 14:06:28;;;;;;;0.80;0.80;;;20.90;89.00;;;;;;4059236;29;20799;-61
2023/09/21 14:09:09;;;;;;;0.70;0.70;;;20.90;89.00;;;;;;4059450;29;20120;-60
2023/09/21 14:11:50;;;;;;;0.77;0.77;;;20.90;88.80;;;;;;4058042;29;20051;-61
2023/09/21 14:14:31;;;;;;;4.57;0.95;;;20.90;88.90;;;;;;4066102;29;20122;-60
2023/09/21 14:17:13;;;;;;;0.68;0.68;;;20.90;88.80;;;;;;4059370;29;20059;-58
2023/09/21 14:19:54;;;;;;;1.35;0.68;;;20.80;88.40;;;;;;4055153;29;20119;-61